Overview Statistics Trail Chart Weather Telemetry Raw packets
 

This is the latest recevied weather packets stored in our database for station/object EA1CZ-11. If no packets are shown the sender has not sent any weather packets the latest 10 day(s).

<< 7 8 9 10 11 12 13 >>
Time Temp. Humidity Pressure Rain* Wind** Luminosity Snow
1788190298 27.78° C 45% 1000.3 hPa - - - -
1788189379 27.78° C 45% 1000.5 hPa - - - -
1788188479 27.78° C 46% 1000.6 hPa - - - -
1788187579 28.33° C 46% 1000.7 hPa - - - -
1788186679 28.33° C 47% 1000.8 hPa - - - -
1788185779 28.33° C 48% 1000.8 hPa - - - -
1788184879 27.78° C 48% 1000.8 hPa - - - -
1788183979 27.78° C 48% 1000.8 hPa - - - -
1788183078 27.78° C 49% 1000.9 hPa - - - -
1788182178 27.78° C 49% 1000.9 hPa - - - -
1788181278 27.22° C 50% 1000.9 hPa - - - -
1788180378 27.22° C 50% 1001.1 hPa - - - -
1788179474 26.67° C 50% 1001.2 hPa - - - -
1788178574 26.67° C 50% 1001.3 hPa - - - -
1788177674 26.11° C 51% 1001.3 hPa - - - -
1788176774 26.11° C 51% 1001.3 hPa - - - -
1788175874 25.56° C 51% 1001.2 hPa - - - -
1788174974 25.56° C 51% 1001.3 hPa - - - -
1788174074 25° C 52% 1001.3 hPa - - - -
1788173174 24.44° C 52% 1001.2 hPa - - - -
1788172273 24.44° C 52% 1001.4 hPa - - - -
1788171373 23.89° C 52% 1001.3 hPa - - - -
1788170473 23.89° C 52% 1001.2 hPa - - - -
1788169573 23.89° C 52% 1001.3 hPa - - - -
1788168673 23.33° C 52% 1001.2 hPa - - - -

* Rain since midnight (hover to see other rain measurements)
** Current wind speed in m/s (hover to see current wind gust speed)